Stolt Acer — D5MY2 — position and weather

sailwx.info

Track history (hours):
 
Tides and Currents Weather Stations Pressure Air Temp Water Temp Dewpoint Dewpoint Depression Visibility Wind Speed Wind Dir Waves Ship Positions

Stolt Acer

Last reported at 2018-May-01 00:52 UTC. Time now 2018-Jun-18 19:33 UTC.
Position S 26°13' W 047°19'.
Warning: this ship's position is 48 days out of date.

Length 169 m; draft 8.3 m.

Type: Ship (hazmat cat A). MMSI: 636017838.

Date/timePositionNaut miles runAvg speedWind from/ knotsBaromVisibWave heightAir tempDewpointWater temp
2018-May-01 00:52S 26°13' W 047°19'713.6
2018-May-01 00:23S 26°07' W 047°16'513.5
2018-May-01 00:00S 26°02' W 047°13'813.5
2018-Apr-30 23:25S 25°56' W 047°09'613.1
2018-Apr-30 23:00S 25°51' W 047°06'713.3
2018-Apr-30 22:30S 25°45' W 047°03'1113.4
2018-Apr-30 21:41S 25°35' W 046°57'213.3
2018-Apr-30 21:30S 25°33' W 046°56'713.3
2018-Apr-30 21:00S 25°27' W 046°53'913.3
2018-Apr-30 20:18S 25°19' W 046°48'413.3
2018-Apr-30 20:00S 25°15' W 046°45'713.3
2018-Apr-30 19:30S 25°10' W 046°42'713.6
2018-Apr-30 19:00S 25°03' W 046°39'713.7
2018-Apr-30 18:30S 24°57' W 046°35'713.7
2018-Apr-30 18:00S 24°51' W 046°32'714.2
2018-Apr-30 17:29S 24°45' W 046°28'713.9
2018-Apr-30 17:00S 24°38' W 046°26'714.2
2018-Apr-30 16:30S 24°31' W 046°26'714.1
2018-Apr-30 16:00S 24°24' W 046°25'713.9
2018-Apr-30 15:30S 24°17' W 046°26'813.7
2018-Apr-30 14:57S 24°10' W 046°24'613.3
2018-Apr-30 14:31S 24°04' W 046°22'510.4
2018-Apr-30 14:01S 23°60' W 046°20'  
2018-Apr-27 13:14S 23°57' W 046°18'2 7.1
2018-Apr-27 12:57S 23°59' W 046°18'3 7.2
2018-Apr-27 12:30S 24°01' W 046°21'3 5.7
2018-Apr-27 12:00S 24°04' W 046°22'3 6.8
2018-Apr-27 11:30S 24°06' W 046°19'0 0.9
2018-Apr-27 10:58S 24°07' W 046°19'0 0.0
2018-Apr-27 08:40S 24°07' W 046°19'0 0.0
2018-Apr-27 08:25S 24°07' W 046°19'0 0.0
2018-Apr-27 06:22S 24°07' W 046°19'0 0.1
2018-Apr-27 05:55S 24°06' W 046°19'0 0.1
2018-Apr-27 05:28S 24°06' W 046°19'0 0.0
2018-Apr-27 04:58S 24°06' W 046°19'0 0.0
2018-Apr-27 04:25S 24°06' W 046°19'0 0.0
2018-Apr-27 03:58S 24°06' W 046°19'0 0.0
2018-Apr-27 03:16S 24°06' W 046°19'0 0.1
2018-Apr-27 02:58S 24°06' W 046°19'0 0.0
2018-Apr-27 02:28S 24°06' W 046°19'0 0.0
2018-Apr-27 01:55S 24°06' W 046°19'0 0.0
2018-Apr-27 01:25S 24°06' W 046°19'0 0.1
2018-Apr-27 00:58S 24°06' W 046°19'0 0.1
2018-Apr-27 00:22S 24°06' W 046°19'0 0.0
2018-Apr-26 23:58S 24°06' W 046°19'0 0.1
2018-Apr-26 23:28S 24°06' W 046°19'0 0.0
2018-Apr-26 22:58S 24°06' W 046°19'0 0.0
2018-Apr-26 22:28S 24°06' W 046°19'0 0.0
2018-Apr-26 21:55S 24°06' W 046°19'0 0.0
2018-Apr-26 21:28S 24°06' W 046°19'0 0.0
2018-Apr-26 20:58S 24°06' W 046°19'0 0.0
2018-Apr-26 20:28S 24°06' W 046°19'0 0.0
2018-Apr-26 19:55S 24°06' W 046°19'0 0.0
2018-Apr-26 19:22S 24°06' W 046°19'0 0.0
2018-Apr-26 18:58S 24°06' W 046°19'0 0.0
2018-Apr-26 18:19S 24°06' W 046°19'0 0.1
2018-Apr-26 17:58S 24°06' W 046°19'0 0.0
2018-Apr-26 17:22S 24°06' W 046°19'0 0.0
2018-Apr-26 16:58S 24°06' W 046°19'0 0.0
2018-Apr-26 16:22S 24°06' W 046°19'0 0.0
2018-Apr-26 15:58S 24°06' W 046°19'0 0.0
2018-Apr-26 15:28S 24°06' W 046°19'0 0.0
2018-Apr-26 14:58S 24°06' W 046°19'0 0.0
2018-Apr-26 14:22S 24°06' W 046°19'0 0.0
2018-Apr-26 13:58S 24°06' W 046°19'0 0.0
2018-Apr-26 13:25S 24°06' W 046°19'0 0.0
2018-Apr-26 12:58S 24°06' W 046°19'0 0.0
2018-Apr-26 12:19S 24°06' W 046°19'0 0.0
2018-Apr-26 11:52S 24°06' W 046°19'0 0.0
2018-Apr-26 11:25S 24°06' W 046°19'0 0.0
2018-Apr-26 10:58S 24°06' W 046°19'0 0.0
2018-Apr-26 10:28S 24°06' W 046°19'0 0.0
2018-Apr-26 09:58S 24°06' W 046°19'0 0.0
2018-Apr-26 09:28S 24°06' W 046°19'0 0.0
2018-Apr-26 08:58S 24°06' W 046°19'0 0.0
2018-Apr-26 08:28S 24°06' W 046°19'0 0.0
2018-Apr-26 07:58S 24°06' W 046°19'0 0.0
2018-Apr-26 07:28S 24°06' W 046°19'0 0.0
2018-Apr-26 06:55S 24°06' W 046°19'0 0.0
2018-Apr-26 06:25S 24°06' W 046°19'0 0.0
2018-Apr-26 05:58S 24°06' W 046°19'0 0.0
2018-Apr-26 05:22S 24°06' W 046°19'0 0.1
2018-Apr-26 04:49S 24°06' W 046°19'0 0.0
2018-Apr-26 04:25S 24°06' W 046°19'0 0.1
2018-Apr-26 03:55S 24°06' W 046°19'0 0.1
2018-Apr-26 03:25S 24°06' W 046°19'0 0.0
2018-Apr-26 02:55S 24°06' W 046°19'0 0.0
2018-Apr-26 02:25S 24°06' W 046°19'0 0.0
2018-Apr-26 01:58S 24°06' W 046°19'0 0.0
2018-Apr-26 01:28S 24°06' W 046°19'0 0.0
2018-Apr-26 00:43S 24°06' W 046°19'0 0.0
2018-Apr-26 00:16S 24°06' W 046°19'0 0.0
2018-Apr-25 23:25S 24°06' W 046°19'0 0.0
2018-Apr-25 22:43S 24°06' W 046°19'0 0.0
2018-Apr-25 22:22S 24°06' W 046°19'0 0.0
2018-Apr-25 21:58S 24°06' W 046°19'0 0.0
2018-Apr-25 21:28S 24°06' W 046°19'0 0.0
2018-Apr-25 20:58S 24°06' W 046°19'0 0.0
2018-Apr-25 20:28S 24°06' W 046°19'0 0.1
2018-Apr-25 19:58S 24°06' W 046°19'2 3.6
2018-Apr-25 19:30S 24°07' W 046°17'4 7.3
2018-Apr-25 19:00S 24°10' W 046°14'  
Track history (hours):
 
Tides and Currents Weather Stations Pressure Air Temp Water Temp Dewpoint Dewpoint Depression Visibility Wind Speed Wind Dir Waves Ship Positions

Stolt Acer

Last reported at 2018-May-01 00:52 UTC. Time now 2018-Jun-18 19:33 UTC.
Position S 26°13' W 047°19'.
Warning: this ship's position is 48 days out of date.

Length 169 m; draft 8.3 m.

Type: Ship (hazmat cat A). MMSI: 636017838.

Date/timePositionNaut miles runAvg speedWind from/ knotsBaromVisibWave heightAir tempDewpointWater temp
2018-May-01 00:52S 26°13' W 047°19'713.6
2018-May-01 00:23S 26°07' W 047°16'513.5
2018-May-01 00:00S 26°02' W 047°13'813.5
2018-Apr-30 23:25S 25°56' W 047°09'613.1
2018-Apr-30 23:00S 25°51' W 047°06'713.3
2018-Apr-30 22:30S 25°45' W 047°03'1113.4
2018-Apr-30 21:41S 25°35' W 046°57'213.3
2018-Apr-30 21:30S 25°33' W 046°56'713.3
2018-Apr-30 21:00S 25°27' W 046°53'913.3
2018-Apr-30 20:18S 25°19' W 046°48'413.3
2018-Apr-30 20:00S 25°15' W 046°45'713.3
2018-Apr-30 19:30S 25°10' W 046°42'713.6
2018-Apr-30 19:00S 25°03' W 046°39'713.7
2018-Apr-30 18:30S 24°57' W 046°35'713.7
2018-Apr-30 18:00S 24°51' W 046°32'714.2
2018-Apr-30 17:29S 24°45' W 046°28'713.9
2018-Apr-30 17:00S 24°38' W 046°26'714.2
2018-Apr-30 16:30S 24°31' W 046°26'714.1
2018-Apr-30 16:00S 24°24' W 046°25'713.9
2018-Apr-30 15:30S 24°17' W 046°26'813.7
2018-Apr-30 14:57S 24°10' W 046°24'613.3
2018-Apr-30 14:31S 24°04' W 046°22'510.4
2018-Apr-30 14:01S 23°60' W 046°20'  
2018-Apr-27 13:14S 23°57' W 046°18'2 7.1
2018-Apr-27 12:57S 23°59' W 046°18'3 7.2
2018-Apr-27 12:30S 24°01' W 046°21'3 5.7
2018-Apr-27 12:00S 24°04' W 046°22'3 6.8
2018-Apr-27 11:30S 24°06' W 046°19'0 0.9
2018-Apr-27 10:58S 24°07' W 046°19'0 0.0
2018-Apr-27 08:40S 24°07' W 046°19'0 0.0
2018-Apr-27 08:25S 24°07' W 046°19'0 0.0
2018-Apr-27 06:22S 24°07' W 046°19'0 0.1
2018-Apr-27 05:55S 24°06' W 046°19'0 0.1
2018-Apr-27 05:28S 24°06' W 046°19'0 0.0
2018-Apr-27 04:58S 24°06' W 046°19'0 0.0
2018-Apr-27 04:25S 24°06' W 046°19'0 0.0
2018-Apr-27 03:58S 24°06' W 046°19'0 0.0
2018-Apr-27 03:16S 24°06' W 046°19'0 0.1
2018-Apr-27 02:58S 24°06' W 046°19'0 0.0
2018-Apr-27 02:28S 24°06' W 046°19'0 0.0
2018-Apr-27 01:55S 24°06' W 046°19'0 0.0
2018-Apr-27 01:25S 24°06' W 046°19'0 0.1
2018-Apr-27 00:58S 24°06' W 046°19'0 0.1
2018-Apr-27 00:22S 24°06' W 046°19'0 0.0
2018-Apr-26 23:58S 24°06' W 046°19'0 0.1
2018-Apr-26 23:28S 24°06' W 046°19'0 0.0
2018-Apr-26 22:58S 24°06' W 046°19'0 0.0
2018-Apr-26 22:28S 24°06' W 046°19'0 0.0
2018-Apr-26 21:55S 24°06' W 046°19'0 0.0
2018-Apr-26 21:28S 24°06' W 046°19'0 0.0
2018-Apr-26 20:58S 24°06' W 046°19'0 0.0
2018-Apr-26 20:28S 24°06' W 046°19'0 0.0
2018-Apr-26 19:55S 24°06' W 046°19'0 0.0
2018-Apr-26 19:22S 24°06' W 046°19'0 0.0
2018-Apr-26 18:58S 24°06' W 046°19'0 0.0
2018-Apr-26 18:19S 24°06' W 046°19'0 0.1
2018-Apr-26 17:58S 24°06' W 046°19'0 0.0
2018-Apr-26 17:22S 24°06' W 046°19'0 0.0
2018-Apr-26 16:58S 24°06' W 046°19'0 0.0
2018-Apr-26 16:22S 24°06' W 046°19'0 0.0
2018-Apr-26 15:58S 24°06' W 046°19'0 0.0
2018-Apr-26 15:28S 24°06' W 046°19'0 0.0
2018-Apr-26 14:58S 24°06' W 046°19'0 0.0
2018-Apr-26 14:22S 24°06' W 046°19'0 0.0
2018-Apr-26 13:58S 24°06' W 046°19'0 0.0
2018-Apr-26 13:25S 24°06' W 046°19'0 0.0
2018-Apr-26 12:58S 24°06' W 046°19'0 0.0
2018-Apr-26 12:19S 24°06' W 046°19'0 0.0
2018-Apr-26 11:52S 24°06' W 046°19'0 0.0
2018-Apr-26 11:25S 24°06' W 046°19'0 0.0
2018-Apr-26 10:58S 24°06' W 046°19'0 0.0
2018-Apr-26 10:28S 24°06' W 046°19'0 0.0
2018-Apr-26 09:58S 24°06' W 046°19'0 0.0
2018-Apr-26 09:28S 24°06' W 046°19'0 0.0
2018-Apr-26 08:58S 24°06' W 046°19'0 0.0
2018-Apr-26 08:28S 24°06' W 046°19'0 0.0
2018-Apr-26 07:58S 24°06' W 046°19'0 0.0
2018-Apr-26 07:28S 24°06' W 046°19'0 0.0
2018-Apr-26 06:55S 24°06' W 046°19'0 0.0
2018-Apr-26 06:25S 24°06' W 046°19'0 0.0
2018-Apr-26 05:58S 24°06' W 046°19'0 0.0
2018-Apr-26 05:22S 24°06' W 046°19'0 0.1
2018-Apr-26 04:49S 24°06' W 046°19'0 0.0
2018-Apr-26 04:25S 24°06' W 046°19'0 0.1
2018-Apr-26 03:55S 24°06' W 046°19'0 0.1
2018-Apr-26 03:25S 24°06' W 046°19'0 0.0
2018-Apr-26 02:55S 24°06' W 046°19'0 0.0
2018-Apr-26 02:25S 24°06' W 046°19'0 0.0
2018-Apr-26 01:58S 24°06' W 046°19'0 0.0
2018-Apr-26 01:28S 24°06' W 046°19'0 0.0
2018-Apr-26 00:43S 24°06' W 046°19'0 0.0
2018-Apr-26 00:16S 24°06' W 046°19'0 0.0
2018-Apr-25 23:25S 24°06' W 046°19'0 0.0
2018-Apr-25 22:43S 24°06' W 046°19'0 0.0
2018-Apr-25 22:22S 24°06' W 046°19'0 0.0
2018-Apr-25 21:58S 24°06' W 046°19'0 0.0
2018-Apr-25 21:28S 24°06' W 046°19'0 0.0
2018-Apr-25 20:58S 24°06' W 046°19'0 0.0
2018-Apr-25 20:28S 24°06' W 046°19'0 0.1
2018-Apr-25 19:58S 24°06' W 046°19'2 3.6
2018-Apr-25 19:30S 24°07' W 046°17'4 7.3
2018-Apr-25 19:00S 24°10' W 046°14'  

Dump ship's entire track history